Tuesday, January 16, 2018, 6:53 AM EST
Back to Local

KMMK, Meriden Markham Municipal Airport

Location: Meriden, CT, United States Lat: 41.517
Local Time: 6:53 AM EST (11:53 GMT) Lon: -72.833
Time Zone: US/Eastern Elev: 101 ft

Show me the last for .
Show Decoded

2018-01-16 05:53 METAR KMMK 161053Z AUTO 27003KT 10SM OVC042 M07/M12 A3051 RMK AO2 SLP334
                 T10721117 =
2018-01-16 04:53 METAR KMMK 160953Z AUTO 12004KT 10SM OVC043 M08/M11 A3051 RMK AO2 SLP336
                 T10781111 =
2018-01-16 03:53 METAR KMMK 160853Z AUTO 13006KT 10SM OVC046 M09/M12 A3050 RMK AO2 SLP332
                 T10891117 51007 =
2018-01-16 02:53 METAR KMMK 160753Z AUTO 00000KT 10SM CLR M08/M13 A3050 RMK AO2 SLP331 T10831128
                 =
2018-01-16 01:53 METAR KMMK 160653Z AUTO 00000KT 10SM CLR M08/M13 A3050 RMK AO2 SLP330 T10831128
                 =
2018-01-16 00:53 METAR KMMK 160553Z AUTO VRB03KT 10SM CLR M07/M13 A3048 RMK AO2 SLP325 T10721133
                 11056 21072 58016 =
2018-01-15 23:53 METAR KMMK 160453Z AUTO 32003KT 10SM CLR M07/M13 A3050 RMK AO2 SLP331 T10671133
                 410561117 =
2018-01-15 22:53 METAR KMMK 160353Z AUTO VRB04KT 10SM SCT034 M06/M14 A3052 RMK AO2 SLP337
                 T10611139 =
2018-01-15 21:53 METAR KMMK 160253Z AUTO VRB05KT 10SM OVC034 M06/M14 A3053 RMK AO2 SLP342
                 T10561139 56012 =
2018-01-15 21:21 METAR KMMK 160221Z AUTO VRB05KT 10SM SCT018 OVC034 M06/M14 A3054 RMK AO2
                 T10561139 =
2018-01-15 21:08 METAR KMMK 160208Z AUTO 02003KT 10SM BKN018 OVC034 M06/M14 A3056 RMK AO2
                 T10561139 =
2018-01-15 20:53 METAR KMMK 160153Z AUTO VRB05KT 10SM SCT018 OVC034 M06/M14 A3055 RMK AO2 SLP347
                 T10561139 =
2018-01-15 19:53 METAR KMMK 160053Z AUTO VRB05KT 10SM BKN018 OVC034 M06/M14 A3055 RMK AO2 SLP348
                 T10561139 =
2018-01-15 18:53 METAR KMMK 152353Z AUTO VRB05KT 10SM BKN019 OVC035 M06/M14 A3057 RMK AO2 SLP353
                 T10561139 11056 21072 55001 =
2018-01-15 18:18 METAR KMMK 152318Z AUTO VRB06KT 10SM BKN019 OVC037 M06/M13 A3057 RMK AO2
                 T10561133 =
2018-01-15 17:53 METAR KMMK 152253Z AUTO VRB05KT 10SM FEW020 OVC037 M06/M13 A3056 RMK AO2 SLP352
                 T10561128 =
2018-01-15 16:53 METAR KMMK 152153Z AUTO VRB05KT 10SM OVC036 M06/M12 A3057 RMK AO2 SLP353
                 T10561122 =
2018-01-15 16:34 METAR KMMK 152134Z AUTO VRB05KT 10SM SCT020 OVC038 M06/M12 A3056 RMK AO2
                 T10561122 =
2018-01-15 15:53 METAR KMMK 152053Z AUTO VRB05KT 10SM OVC020 M06/M12 A3057 RMK AO2 SLP354
                 T10561122 56010 =
2018-01-15 14:53 METAR KMMK 151953Z AUTO VRB06KT 10SM OVC020 M06/M13 A3058 RMK AO2 SLP356
                 T10561128 =
2018-01-15 13:53 METAR KMMK 151853Z AUTO VRB05KT 10SM OVC018 M06/M13 A3059 RMK AO2 SLP360
                 T10611128 =
2018-01-15 12:53 METAR KMMK 151753Z AUTO VRB06KT 10SM BKN020 OVC034 M07/M13 A3060 RMK AO2 SLP364
                 T10721133 11067 21106 58043 =
2018-01-15 12:21 METAR KMMK 151721Z AUTO VRB05KT 10SM BKN026 OVC034 M07/M13 A3063 RMK AO2
                 T10721133 =
2018-01-15 11:53 METAR KMMK 151653Z AUTO VRB06KT 10SM OVC032 M07/M14 A3065 RMK AO2 SLP382
                 T10721139 =
2018-01-15 10:53 METAR KMMK 151553Z AUTO VRB06KT 10SM OVC030 M08/M14 A3070 RMK AO2 SLP398
                 T10831144 =
2018-01-15 09:53 METAR KMMK 151453Z AUTO VRB04KT 10SM OVC032 M09/M16 A3073 RMK AO2 SLP408
                 T10941156 50002 =
2018-01-15 08:53 METAR KMMK 151353Z AUTO VRB05KT 10SM OVC031 M10/M16 A3073 RMK AO2 SLP410
                 T11001161 =
2018-01-15 07:53 METAR KMMK 151253Z AUTO VRB06KT 10SM OVC031 M10/M16 A3073 RMK AO2 SLP407
                 T11001161 =

Support USWX by starting your Amazon purchase here.